Time;durP1;ratioP1;P1;durP2;ratioP2;P2;SDS_P1;SDS_P2;PMS_P1;PMS_P2;Temp;Humidity;BMP_temperature;BMP_pressure;BME280_temperature;BME280_humidity;BME280_pressure;Samples;Min_cycle;Max_cycle;Signal;HPM_P1;HPM_P2
2022/10/22 05:02:28;;;;;;;3.03;0.30;;;13.90;99.90;;;;;;5546575;23;20046;-70
2022/10/22 05:04:53;;;;;;;1.50;0.40;;;13.80;99.90;;;;;;4980309;28;20335;-70
2022/10/22 05:07:19;;;;;;;2.08;0.30;;;13.80;99.90;;;;;;4965950;28;20086;-69
2022/10/22 05:09:45;;;;;;;1.58;0.60;;;13.80;99.90;;;;;;4983353;28;20022;-70
2022/10/22 05:12:10;;;;;;;2.65;0.60;;;13.70;99.90;;;;;;4982971;28;20078;-70
2022/10/22 05:14:36;;;;;;;2.33;0.68;;;13.70;99.90;;;;;;4983878;28;20050;-70
2022/10/22 05:17:02;;;;;;;1.85;0.28;;;13.60;99.90;;;;;;4982796;28;20034;-70
2022/10/22 05:19:29;;;;;;;2.28;0.30;;;13.80;99.90;;;;;;4983541;28;20038;-69
2022/10/22 05:21:57;;;;;;;2.08;0.22;;;13.80;99.90;;;;;;4968571;28;20058;-69
2022/10/22 05:24:24;;;;;;;1.38;0.35;;;13.80;99.90;;;;;;4946345;29;20027;-69
2022/10/22 05:26:54;;;;;;;3.05;0.45;;;13.80;99.90;;;;;;4946818;29;20042;-69
2022/10/22 05:29:21;;;;;;;1.77;0.30;;;13.80;99.90;;;;;;4963811;29;20034;-71
2022/10/22 05:31:47;;;;;;;0.68;0.30;;;13.80;99.90;;;;;;4963902;29;20031;-70
2022/10/22 05:34:14;;;;;;;1.60;0.50;;;13.80;99.90;;;;;;4963604;29;20038;-69
2022/10/22 05:36:40;;;;;;;2.42;0.30;;;13.80;99.90;;;;;;4978340;28;20031;-68
2022/10/22 05:39:06;;;;;;;1.63;0.30;;;13.90;99.90;;;;;;4982555;28;20109;-71
2022/10/22 05:41:32;;;;;;;1.50;0.20;;;13.80;99.90;;;;;;4983163;28;20039;-71
2022/10/22 05:43:59;;;;;;;1.08;0.22;;;13.80;99.90;;;;;;4983156;28;20098;-70
2022/10/22 05:46:28;;;;;;;1.13;0.30;;;13.80;99.90;;;;;;4965697;28;20217;-71
2022/10/22 05:48:56;;;;;;;3.13;0.30;;;13.90;99.90;;;;;;4983374;28;20046;-70
2022/10/22 05:51:23;;;;;;;3.25;0.30;;;14.00;99.90;;;;;;4982948;28;20035;-71
2022/10/22 05:53:54;;;;;;;1.52;0.40;;;14.10;99.90;;;;;;4983093;28;20034;-70
2022/10/22 05:56:21;;;;;;;0.80;0.20;;;14.10;99.90;;;;;;4982793;28;20142;-69
2022/10/22 05:58:47;;;;;;;1.58;0.25;;;14.20;99.90;;;;;;4983167;28;20034;-71
2022/10/22 06:01:18;;;;;;;0.73;0.30;;;14.20;99.90;;;;;;4986325;28;20058;-70
2022/10/22 06:03:45;;;;;;;3.05;0.60;;;14.20;99.90;;;;;;4971744;28;20035;-69
2022/10/22 06:06:23;;;;;;;2.65;0.73;;;14.20;99.90;;;;;;4967055;29;20241;-69
2022/10/22 06:08:51;;;;;;;3.73;1.20;;;14.20;99.90;;;;;;4967386;29;20386;-70
2022/10/22 06:11:18;;;;;;;2.97;0.60;;;14.20;99.90;;;;;;4985007;28;20030;-71
2022/10/22 06:13:45;;;;;;;2.97;0.60;;;14.20;99.90;;;;;;4969909;28;20042;-70
2022/10/22 06:16:11;;;;;;;3.22;0.70;;;14.10;99.90;;;;;;4986458;28;20327;-71
2022/10/22 06:18:37;;;;;;;3.33;0.98;;;14.10;99.90;;;;;;4969876;28;20023;-71
2022/10/22 06:21:11;;;;;;;3.40;0.60;;;14.10;99.90;;;;;;4986594;28;20037;-70
2022/10/22 06:23:39;;;;;;;2.45;0.60;;;14.20;99.90;;;;;;4986749;28;20263;-71
2022/10/22 06:26:06;;;;;;;3.10;1.25;;;14.20;99.90;;;;;;4986618;28;20252;-72
2022/10/22 06:28:32;;;;;;;3.25;0.73;;;14.10;99.90;;;;;;4986484;28;20062;-70
2022/10/22 06:30:58;;;;;;;2.63;0.38;;;14.10;99.90;;;;;;4986893;28;20035;-72
2022/10/22 06:33:25;;;;;;;2.40;0.73;;;14.20;99.90;;;;;;4986052;28;20114;-71
2022/10/22 06:35:51;;;;;;;2.80;0.75;;;14.20;99.90;;;;;;4986333;28;20057;-70
2022/10/22 06:38:17;;;;;;;2.75;0.90;;;14.30;99.90;;;;;;4985985;28;20317;-71
2022/10/22 06:40:43;;;;;;;2.45;0.57;;;14.30;99.90;;;;;;4986426;28;20320;-71
2022/10/22 06:43:13;;;;;;;3.33;0.68;;;14.40;99.90;;;;;;4986141;28;20089;-71
2022/10/22 06:45:39;;;;;;;4.43;1.60;;;14.50;99.90;;;;;;4986167;28;20035;-70
2022/10/22 06:48:05;;;;;;;2.72;0.60;;;14.50;99.90;;;;;;4986345;28;20037;-70
2022/10/22 06:50:33;;;;;;;3.92;0.50;;;14.60;99.90;;;;;;4985842;28;20097;-70
2022/10/22 06:53:00;;;;;;;2.60;0.30;;;14.60;99.90;;;;;;4986427;28;20065;-70
2022/10/22 06:55:25;;;;;;;2.22;0.50;;;14.60;99.90;;;;;;4986053;28;20027;-71
2022/10/22 06:57:51;;;;;;;2.30;0.60;;;14.60;99.90;;;;;;4975951;28;20055;-71
2022/10/22 07:00:17;;;;;;;3.03;0.60;;;14.60;99.90;;;;;;4966322;29;20027;-72
2022/10/22 07:02:43;;;;;;;1.25;0.60;;;14.60;99.90;;;;;;4966601;28;20101;-70
2022/10/22 07:05:09;;;;;;;3.08;0.70;;;14.60;99.90;;;;;;4976467;28;20086;-71
2022/10/22 07:07:40;;;;;;;2.22;0.60;;;14.60;99.90;;;;;;4986248;28;20037;-71
2022/10/22 07:10:06;;;;;;;4.35;0.70;;;14.60;99.90;;;;;;4986078;28;20073;-71
2022/10/22 07:12:34;;;;;;;1.55;0.40;;;14.70;99.90;;;;;;4968561;28;20097;-71
2022/10/22 07:15:00;;;;;;;1.95;0.60;;;14.70;99.90;;;;;;4985676;28;20042;-71
2022/10/22 07:17:29;;;;;;;2.97;0.57;;;14.80;99.90;;;;;;4985353;28;20034;-71
2022/10/22 07:19:55;;;;;;;4.35;0.80;;;14.80;99.90;;;;;;4985587;28;20105;-71
2022/10/22 07:22:20;;;;;;;3.95;0.57;;;14.80;99.90;;;;;;4984997;28;20022;-71
2022/10/22 07:24:46;;;;;;;3.88;0.60;;;14.90;99.90;;;;;;4985493;28;20030;-70
2022/10/22 07:27:12;;;;;;;2.67;0.65;;;14.90;99.90;;;;;;4985078;28;20038;-69
2022/10/22 07:29:37;;;;;;;3.50;1.77;;;14.90;99.90;;;;;;4985584;28;20049;-72
2022/10/22 07:32:03;;;;;;;2.00;0.77;;;14.90;99.90;;;;;;4985324;28;20054;-73
2022/10/22 07:34:29;;;;;;;4.57;0.68;;;14.90;99.90;;;;;;4984849;28;20039;-71
2022/10/22 07:36:56;;;;;;;3.13;0.77;;;14.90;99.90;;;;;;4985700;28;20027;-72
2022/10/22 07:39:22;;;;;;;4.63;0.95;;;14.90;99.90;;;;;;4984881;28;20081;-72
2022/10/22 07:41:47;;;;;;;5.20;0.85;;;14.90;99.90;;;;;;4982664;28;20019;-70
2022/10/22 07:44:13;;;;;;;3.55;0.82;;;15.00;99.90;;;;;;4984642;28;20026;-71
2022/10/22 07:46:39;;;;;;;2.90;0.73;;;15.00;99.90;;;;;;4985165;28;20209;-72
2022/10/22 07:49:05;;;;;;;3.80;1.00;;;15.00;99.90;;;;;;4985443;28;20035;-70
2022/10/22 07:51:30;;;;;;;4.30;1.35;;;15.00;99.90;;;;;;4984658;28;20244;-70
2022/10/22 07:53:56;;;;;;;4.47;1.13;;;15.10;99.90;;;;;;4984835;28;20065;-70
2022/10/22 07:56:22;;;;;;;5.18;1.05;;;15.10;99.90;;;;;;4984356;28;20027;-70
2022/10/22 07:58:47;;;;;;;7.60;1.37;;;15.10;99.90;;;;;;4984331;28;20058;-70
2022/10/22 08:01:13;;;;;;;5.00;1.20;;;15.10;99.90;;;;;;4984257;28;20264;-70
2022/10/22 08:03:39;;;;;;;3.80;1.27;;;15.20;99.90;;;;;;4964471;29;20355;-73
2022/10/22 08:06:05;;;;;;;4.95;1.23;;;15.30;99.90;;;;;;4965435;28;20027;-73
2022/10/22 08:08:31;;;;;;;4.20;1.38;;;15.40;99.90;;;;;;4965506;28;20031;-70
2022/10/22 08:10:59;;;;;;;13.20;5.03;;;15.40;99.90;;;;;;4965340;29;20098;-71
2022/10/22 08:13:26;;;;;;;8.02;4.68;;;15.50;99.90;;;;;;4965181;28;20030;-70
2022/10/22 08:15:52;;;;;;;4.18;1.60;;;15.60;99.90;;;;;;4965229;28;20213;-72
2022/10/22 08:18:18;;;;;;;3.10;1.55;;;15.60;99.90;;;;;;4964820;28;20031;-70
2022/10/22 08:20:43;;;;;;;5.85;1.52;;;15.70;99.90;;;;;;4963149;28;20148;-72
2022/10/22 08:23:09;;;;;;;4.50;1.20;;;15.80;99.90;;;;;;4952513;28;20049;-73
2022/10/22 08:25:35;;;;;;;7.03;1.55;;;15.90;99.90;;;;;;4963301;29;20078;-72
2022/10/22 08:28:01;;;;;;;5.35;1.48;;;15.80;99.90;;;;;;4962974;29;20236;-70
2022/10/22 08:30:28;;;;;;;3.72;1.23;;;15.70;99.90;;;;;;4962464;29;20031;-70
2022/10/22 08:32:54;;;;;;;7.03;4.72;;;15.70;99.90;;;;;;4963603;29;20027;-71
2022/10/22 08:35:21;;;;;;;7.47;3.60;;;15.70;99.90;;;;;;4963282;28;20035;-71
2022/10/22 08:37:46;;;;;;;9.00;3.72;;;15.60;99.90;;;;;;4964057;28;20023;-72
2022/10/22 08:40:25;;;;;;;5.25;2.83;;;15.70;99.90;;;;;;4962474;29;20124;-70
2022/10/22 08:43:04;;;;;;;4.28;1.23;;;15.70;99.90;;;;;;4963832;28;20074;-71
2022/10/22 08:46:05;;;;;;;6.35;2.78;;;15.80;99.90;;;;;;4963392;28;20185;-71
2022/10/22 08:48:43;;;;;;;4.70;2.88;;;15.90;99.90;;;;;;4933304;28;20265;-72
2022/10/22 08:51:17;;;;;;;2.88;1.23;;;16.00;99.90;;;;;;4963645;29;20030;-71
2022/10/22 08:53:57;;;;;;;2.97;0.85;;;16.00;99.90;;;;;;4963757;28;20035;-70
2022/10/22 08:56:23;;;;;;;3.63;0.65;;;16.00;99.90;;;;;;4962836;29;20212;-71
2022/10/22 08:58:57;;;;;;;3.13;0.88;;;16.10;99.90;;;;;;4963482;28;20046;-74
2022/10/22 09:01:36;;;;;;;1.75;0.68;;;16.20;99.90;;;;;;4962748;28;20031;-69
2022/10/22 09:04:14;;;;;;;2.33;0.70;;;16.30;99.90;;;;;;4984289;28;20038;-72
2022/10/22 09:06:43;;;;;;;3.20;0.80;;;16.40;99.90;;;;;;4983920;28;20097;-72
2022/10/22 09:09:15;;;;;;;6.68;2.80;;;16.50;99.90;;;;;;4983718;28;20308;-71
2022/10/22 09:11:45;;;;;;;2.90;1.50;;;16.70;99.90;;;;;;4983898;28;20107;-72
2022/10/22 09:14:23;;;;;;;1.55;0.60;;;16.80;99.90;;;;;;4950611;28;20023;-72
2022/10/22 09:17:10;;;;;;;2.92;0.40;;;17.00;99.90;;;;;;4983946;28;20035;-72
2022/10/22 09:20:05;;;;;;;2.03;0.70;;;17.20;99.90;;;;;;4982868;28;20224;-70
2022/10/22 09:22:49;;;;;;;1.63;0.40;;;17.30;99.90;;;;;;4982973;28;20540;-72
2022/10/22 09:25:22;;;;;;;1.63;0.30;;;17.50;99.90;;;;;;4983334;28;20043;-69
2022/10/22 09:27:51;;;;;;;1.92;0.50;;;17.60;99.90;;;;;;4983817;28;20023;-71
2022/10/22 09:30:19;;;;;;;;;;;17.60;99.90;;;;;;4983507;28;20061;-74
2022/10/22 09:32:45;;;;;;;2.40;0.40;;;17.70;99.90;;;;;;4983726;28;19913;-72
2022/10/22 09:35:13;;;;;;;2.03;0.40;;;17.80;99.90;;;;;;4982836;28;20077;-71
2022/10/22 09:37:49;;;;;;;3.30;0.40;;;18.00;99.90;;;;;;4982888;28;20023;-73
2022/10/22 09:40:16;;;;;;;1.30;0.40;;;18.10;99.90;;;;;;4983525;28;20042;-72
2022/10/22 09:42:44;;;;;;;2.72;0.30;;;18.20;99.90;;;;;;4983082;28;20026;-74
2022/10/22 09:45:22;;;;;;;1.33;0.30;;;18.30;99.90;;;;;;4983146;28;20035;-72
2022/10/22 09:47:48;;;;;;;0.85;0.20;;;18.30;99.90;;;;;;4983059;28;20050;-71
2022/10/22 09:50:19;;;;;;;2.05;0.38;;;18.30;99.90;;;;;;4982924;28;20034;-71
2022/10/22 09:52:53;;;;;;;1.50;0.30;;;18.40;99.90;;;;;;4983221;28;20027;-70
2022/10/22 09:55:18;;;;;;;2.95;0.40;;;18.50;99.90;;;;;;4982601;28;20308;-71
2022/10/22 09:57:52;;;;;;;3.15;0.32;;;18.60;99.90;;;;;;4965995;28;20034;-73
2022/10/22 10:00:19;;;;;;;2.17;0.50;;;18.70;99.90;;;;;;4965828;28;20340;-71
2022/10/22 10:02:45;;;;;;;2.25;0.32;;;18.70;99.90;;;;;;4965624;28;20269;-72
2022/10/22 10:05:19;;;;;;;1.00;0.35;;;18.80;99.90;;;;;;4983335;28;20102;-71
2022/10/22 10:07:46;;;;;;;1.55;0.30;;;18.90;99.90;;;;;;4983172;28;20062;-70
2022/10/22 10:10:36;;;;;;;1.03;0.20;;;18.90;99.90;;;;;;4973515;28;20023;-71
2022/10/22 10:13:25;;;;;;;1.40;0.57;;;19.00;99.90;;;;;;4963382;29;20835;-70
2022/10/22 10:16:15;;;;;;;1.75;0.50;;;19.20;99.90;;;;;;4963333;29;20069;-72
2022/10/22 10:19:09;;;;;;;1.95;0.28;;;19.30;99.90;;;;;;4946069;28;20039;-72
2022/10/22 10:21:47;;;;;;;2.40;0.60;;;19.60;99.90;;;;;;4963046;29;20043;-72
2022/10/22 10:24:27;;;;;;;2.37;0.20;;;19.70;99.90;;;;;;4963584;29;20035;-72
2022/10/22 10:27:27;;;;;;;1.33;0.40;;;19.80;99.90;;;;;;4963439;29;20651;-71
2022/10/22 10:30:17;;;;;;;2.50;0.40;;;19.90;99.90;;;;;;4963801;29;20039;-70
2022/10/22 10:33:11;;;;;;;1.20;0.20;;;20.00;99.90;;;;;;4946335;29;20090;-72
2022/10/22 10:36:01;;;;;;;0.95;0.20;;;20.20;99.90;;;;;;4962989;29;20043;-72
2022/10/22 10:38:40;;;;;;;0.90;0.40;;;20.50;99.90;;;;;;4963089;29;20027;-71
2022/10/22 10:41:24;;;;;;;3.25;0.77;;;20.90;99.90;;;;;;4946501;29;20047;-72
2022/10/22 10:44:14;;;;;;;0.90;0.13;;;21.10;99.90;;;;;;4963445;29;20255;-70
2022/10/22 10:46:43;;;;;;;3.00;0.20;;;21.50;99.90;;;;;;4965955;28;20063;-70
2022/10/22 10:49:09;;;;;;;;;;;22.00;99.70;;;;;;4967444;29;20035;-73
2022/10/22 10:51:53;;;;;;;2.55;0.47;;;21.80;99.30;;;;;;4949468;29;19937;-71
2022/10/22 10:54:19;;;;;;;2.70;0.38;;;22.20;98.60;;;;;;4967010;29;20098;-73
2022/10/22 10:57:26;;;;;;;1.33;0.40;;;22.70;98.20;;;;;;4966373;29;20035;-73
2022/10/22 11:00:04;;;;;;;1.42;0.30;;;22.90;97.40;;;;;;4933758;29;20041;-72
2022/10/22 11:02:46;;;;;;;;;;;23.80;96.20;;;;;;4966489;28;20047;-72
2022/10/22 11:05:21;;;;;;;0.95;0.25;;;24.90;95.20;;;;;;4966617;29;19910;-73
2022/10/22 11:07:51;;;;;;;2.42;0.32;;;25.80;92.90;;;;;;4966733;29;20138;-72
2022/10/22 11:10:40;;;;;;;1.67;0.32;;;26.00;91.90;;;;;;4966392;28;20033;-71
2022/10/22 11:13:34;;;;;;;2.28;0.50;;;25.70;91.00;;;;;;4949858;29;20079;-73
2022/10/22 11:16:33;;;;;;;2.80;0.40;;;24.90;91.60;;;;;;4966953;29;20042;-72
2022/10/22 11:19:15;;;;;;;1.00;0.30;;;24.40;91.80;;;;;;4966768;29;20039;-72
2022/10/22 11:22:03;;;;;;;1.67;0.30;;;25.00;91.80;;;;;;4966007;29;20061;-71
2022/10/22 11:24:42;;;;;;;2.33;1.10;;;26.20;89.90;;;;;;4965890;29;20031;-73
2022/10/22 11:27:20;;;;;;;4.57;1.48;;;27.40;88.10;;;;;;4966488;29;20029;-70
2022/10/22 11:29:52;;;;;;;1.10;0.30;;;28.00;85.70;;;;;;4965902;29;20220;-70
2022/10/22 11:32:20;;;;;;;2.35;0.40;;;28.30;83.80;;;;;;4966520;29;20027;-74
2022/10/22 11:34:55;;;;;;;1.10;0.30;;;27.60;81.90;;;;;;4965746;29;20267;-72
2022/10/22 11:37:25;;;;;;;1.77;0.30;;;28.40;81.80;;;;;;4966352;29;20023;-72
2022/10/22 11:39:54;;;;;;;3.00;1.60;;;29.60;76.90;;;;;;4978051;28;20034;-73
2022/10/22 11:42:29;;;;;;;2.67;0.73;;;30.30;75.40;;;;;;4985126;28;20094;-71
2022/10/22 11:45:28;;;;;;;2.80;0.30;;;31.70;74.10;;;;;;4985672;28;20023;-71
2022/10/22 11:48:09;;;;;;;1.45;0.30;;;31.50;69.70;;;;;;4985235;28;20065;-71
2022/10/22 11:50:45;;;;;;;2.00;0.40;;;32.10;65.90;;;;;;4985203;28;20038;-71
2022/10/22 11:53:13;;;;;;;5.90;3.35;;;32.00;65.30;;;;;;4985121;28;20331;-71
2022/10/22 11:55:47;;;;;;;2.05;0.43;;;31.90;66.40;;;;;;4984773;28;20094;-72
2022/10/22 11:58:28;;;;;;;1.98;1.02;;;31.80;66.40;;;;;;4966885;28;20182;-72
2022/10/22 12:00:56;;;;;;;3.00;0.50;;;31.70;68.00;;;;;;4984993;28;20317;-72
2022/10/22 12:03:30;;;;;;;;;;;32.20;67.50;;;;;;4985342;28;20392;-74
2022/10/22 12:06:11;;;;;;;1.60;0.50;;;31.00;66.80;;;;;;4984839;28;19906;-72
2022/10/22 12:08:52;;;;;;;2.03;0.60;;;31.80;66.20;;;;;;4984456;28;20033;-74
2022/10/22 12:11:24;;;;;;;2.03;0.30;;;32.70;66.00;;;;;;4984572;28;20023;-72
2022/10/22 12:14:02;;;;;;;1.55;0.30;;;32.50;63.30;;;;;;4984558;28;20030;-75
2022/10/22 12:16:42;;;;;;;1.85;0.43;;;31.30;65.10;;;;;;4984618;28;20322;-72
2022/10/22 12:19:13;;;;;;;2.25;0.45;;;29.40;67.10;;;;;;4984786;28;20265;-72
2022/10/22 12:21:42;;;;;;;3.03;0.95;;;28.20;70.80;;;;;;4984301;28;20163;-73
2022/10/22 12:24:14;;;;;;;2.08;0.40;;;27.10;72.50;;;;;;4971876;28;20372;-72
2022/10/22 12:26:39;;;;;;;1.30;0.30;;;26.40;73.50;;;;;;4947815;29;20054;-71
2022/10/22 12:29:10;;;;;;;3.67;0.50;;;25.90;75.60;;;;;;4958963;28;20388;-71
2022/10/22 12:31:39;;;;;;;2.38;0.30;;;25.30;76.50;;;;;;4962289;29;20081;-73
2022/10/22 12:34:05;;;;;;;2.03;0.55;;;24.90;76.30;;;;;;4964118;28;20030;-74
2022/10/22 12:36:34;;;;;;;2.50;0.57;;;25.50;77.30;;;;;;4963238;28;20102;-71
2022/10/22 12:39:09;;;;;;;2.20;0.47;;;27.60;76.30;;;;;;4964039;29;20335;-73
2022/10/22 12:41:37;;;;;;;2.80;0.50;;;29.30;70.70;;;;;;4963543;29;20046;-72
2022/10/22 12:44:04;;;;;;;5.15;3.70;;;31.40;68.00;;;;;;4963936;28;20030;-74
2022/10/22 12:46:32;;;;;;;2.95;1.75;;;32.80;64.80;;;;;;4962025;29;20035;-73
2022/10/22 12:49:04;;;;;;;2.50;0.63;;;34.20;61.80;;;;;;4963743;29;20091;-72
2022/10/22 12:51:31;;;;;;;4.30;0.52;;;35.50;60.20;;;;;;4961843;29;20035;-71
2022/10/22 12:54:02;;;;;;;2.28;0.90;;;36.50;57.40;;;;;;4963405;29;20031;-73
2022/10/22 12:56:32;;;;;;;3.35;2.88;;;37.10;55.30;;;;;;4963425;29;20102;-73
2022/10/22 12:59:01;;;;;;;3.33;0.50;;;37.50;55.00;;;;;;4960128;29;20047;-73
2022/10/22 13:01:32;;;;;;;2.33;0.40;;;37.80;54.90;;;;;;4963808;28;20284;-74
2022/10/22 13:04:22;;;;;;;1.65;0.60;;;38.40;53.60;;;;;;4982886;28;20030;-73
2022/10/22 13:06:50;;;;;;;4.20;3.60;;;38.50;53.80;;;;;;4981991;28;20556;-75
2022/10/22 13:09:22;;;;;;;1.38;0.30;;;38.00;52.70;;;;;;4982551;28;20049;-71
2022/10/22 13:11:53;;;;;;;2.63;0.90;;;38.10;53.70;;;;;;4982332;28;20043;-73
2022/10/22 13:14:31;;;;;;;2.70;0.75;;;38.30;54.10;;;;;;4982482;28;20069;-71
2022/10/22 13:17:08;;;;;;;2.60;0.50;;;38.10;52.80;;;;;;4982427;28;20098;-71
2022/10/22 13:19:48;;;;;;;2.17;0.60;;;37.80;53.50;;;;;;4981867;28;20047;-71
2022/10/22 13:22:25;;;;;;;2.00;0.40;;;37.00;52.20;;;;;;4981930;28;20038;-71
2022/10/22 13:24:51;;;;;;;;;;;36.10;54.50;;;;;;4982191;28;20058;-72
2022/10/22 13:27:17;;;;;;;2.58;0.88;;;35.30;55.30;;;;;;4982153;28;19929;-74
2022/10/22 13:29:43;;;;;;;3.70;2.20;;;34.30;54.50;;;;;;4981978;28;20100;-73
2022/10/22 13:32:26;;;;;;;1.45;0.32;;;33.50;55.10;;;;;;4982987;28;20034;-73
2022/10/22 13:34:52;;;;;;;3.63;1.75;;;33.10;56.10;;;;;;4982813;28;20102;-74
2022/10/22 13:37:18;;;;;;;2.65;0.60;;;32.80;56.00;;;;;;4983254;28;20208;-74
2022/10/22 13:39:44;;;;;;;4.13;0.50;;;32.60;55.30;;;;;;4982938;28;20057;-78
2022/10/22 13:42:12;;;;;;;2.65;0.50;;;32.30;55.10;;;;;;4958738;29;20042;-75
2022/10/22 13:44:38;;;;;;;2.17;0.50;;;32.10;55.70;;;;;;4963253;29;20355;-74
2022/10/22 13:47:23;;;;;;;1.85;0.60;;;32.10;55.70;;;;;;4964021;29;20036;-73
2022/10/22 13:49:49;;;;;;;1.67;0.40;;;32.00;59.00;;;;;;4963772;29;20320;-74
2022/10/22 13:52:26;;;;;;;3.00;0.50;;;32.10;56.20;;;;;;4963615;29;20023;-72
2022/10/22 13:54:51;;;;;;;1.77;0.50;;;32.80;55.80;;;;;;4963775;29;20043;-72
2022/10/22 13:57:17;;;;;;;5.82;0.90;;;33.00;54.60;;;;;;4963628;29;20031;-73
2022/10/22 13:59:43;;;;;;;2.65;0.40;;;34.20;56.30;;;;;;4963014;29;20047;-73
2022/10/22 14:02:11;;;;;;;1.98;0.38;;;34.10;53.20;;;;;;4963232;28;20111;-74
2022/10/22 14:04:39;;;;;;;2.97;0.50;;;33.80;58.00;;;;;;4963369;29;20118;-74
2022/10/22 14:07:15;;;;;;;1.75;0.40;;;33.30;53.90;;;;;;4963991;29;20317;-72
2022/10/22 14:09:41;;;;;;;1.60;0.30;;;34.10;55.70;;;;;;4968388;28;20031;-73
2022/10/22 14:12:13;;;;;;;5.25;0.93;;;34.20;52.60;;;;;;4965370;28;20097;-73
2022/10/22 14:14:39;;;;;;;2.22;0.40;;;33.10;53.70;;;;;;4982673;28;20268;-73
2022/10/22 14:17:07;;;;;;;3.22;0.40;;;32.70;54.40;;;;;;4983246;28;20018;-74
2022/10/22 14:19:33;;;;;;;1.23;0.45;;;32.60;54.00;;;;;;4982476;28;20307;-74
2022/10/22 14:21:59;;;;;;;3.60;0.60;;;31.90;60.50;;;;;;4986349;28;20054;-73
2022/10/22 14:24:24;;;;;;;1.67;0.47;;;31.30;56.40;;;;;;4986875;28;20038;-74
2022/10/22 14:26:50;;;;;;;4.03;0.90;;;31.20;59.30;;;;;;4986358;28;20218;-73
2022/10/22 14:29:16;;;;;;;3.55;0.82;;;31.60;57.00;;;;;;4986589;28;20030;-73
2022/10/22 14:31:42;;;;;;;1.70;0.50;;;31.70;62.00;;;;;;4986596;28;20023;-72
2022/10/22 14:34:13;;;;;;;2.97;0.60;;;30.80;57.70;;;;;;4986584;28;20339;-73
2022/10/22 14:36:39;;;;;;;2.30;0.52;;;29.40;59.50;;;;;;4986174;28;20030;-74
2022/10/22 14:39:04;;;;;;;2.63;0.40;;;28.30;62.90;;;;;;4986384;28;20220;-73
2022/10/22 14:41:30;;;;;;;1.75;0.50;;;27.50;62.20;;;;;;4986124;28;20045;-72
2022/10/22 14:43:58;;;;;;;2.67;0.47;;;26.40;64.20;;;;;;4986396;28;20039;-73
2022/10/22 14:46:24;;;;;;;2.72;0.40;;;25.70;67.40;;;;;;4986949;28;20098;-72
2022/10/22 14:48:50;;;;;;;2.17;0.50;;;25.50;69.10;;;;;;4985860;28;20035;-72
2022/10/22 14:51:19;;;;;;;2.85;0.80;;;24.80;68.10;;;;;;4986004;28;20045;-73
2022/10/22 14:53:45;;;;;;;4.75;0.93;;;24.20;69.90;;;;;;4985989;28;20031;-73
2022/10/22 14:56:13;;;;;;;2.03;0.70;;;24.10;71.40;;;;;;4985966;28;20116;-73
2022/10/22 14:58:39;;;;;;;3.13;1.00;;;24.30;72.30;;;;;;4985705;28;20057;-73
2022/10/22 15:01:06;;;;;;;3.45;1.20;;;24.20;72.70;;;;;;4985510;28;20046;-72
2022/10/22 15:03:31;;;;;;;3.78;1.20;;;23.90;74.10;;;;;;4985789;28;20043;-72
2022/10/22 15:05:57;;;;;;;4.28;1.00;;;24.10;73.70;;;;;;4986009;28;20128;-72
2022/10/22 15:08:23;;;;;;;4.40;0.90;;;24.70;72.00;;;;;;4986037;28;20113;-75
2022/10/22 15:11:07;;;;;;;4.97;0.90;;;25.10;71.10;;;;;;4971036;28;20039;-74
2022/10/22 15:13:33;;;;;;;5.00;1.05;;;25.30;72.60;;;;;;4965961;29;20333;-73
2022/10/22 15:16:00;;;;;;;3.03;0.93;;;25.70;72.30;;;;;;4966463;29;20050;-74
2022/10/22 15:18:26;;;;;;;4.22;1.15;;;25.90;71.60;;;;;;4966453;29;20043;-72
2022/10/22 15:21:00;;;;;;;2.80;0.77;;;26.30;68.40;;;;;;4965859;29;20244;-72
2022/10/22 15:23:26;;;;;;;3.33;0.70;;;26.70;68.80;;;;;;4966363;29;20039;-71
2022/10/22 15:25:52;;;;;;;2.42;0.70;;;27.00;67.40;;;;;;4965876;29;20050;-74
2022/10/22 15:28:18;;;;;;;4.68;1.10;;;27.20;65.60;;;;;;4966320;29;20031;-72
2022/10/22 15:30:44;;;;;;;3.15;1.10;;;26.80;66.70;;;;;;4965605;29;20039;-70
2022/10/22 15:33:10;;;;;;;5.65;1.17;;;26.70;67.20;;;;;;4947951;29;20027;-71
2022/10/22 15:35:35;;;;;;;4.00;1.30;;;26.90;67.40;;;;;;4965855;29;20031;-71
2022/10/22 15:38:01;;;;;;;3.65;1.00;;;26.80;66.80;;;;;;4966295;29;20031;-71
2022/10/22 15:40:27;;;;;;;5.88;1.15;;;26.10;68.50;;;;;;4965995;29;20043;-70
2022/10/22 15:42:53;;;;;;;3.30;1.38;;;25.30;69.50;;;;;;4978723;28;20510;-70
2022/10/22 15:45:20;;;;;;;3.70;1.20;;;24.60;72.00;;;;;;4985321;28;20038;-72
2022/10/22 15:47:47;;;;;;;2.83;1.15;;;23.70;74.20;;;;;;4967480;28;20109;-71
2022/10/22 15:50:12;;;;;;;5.85;1.35;;;23.10;76.10;;;;;;4982757;28;20034;-70
2022/10/22 15:52:38;;;;;;;6.75;1.55;;;22.50;79.30;;;;;;4984776;28;20077;-70
2022/10/22 15:55:09;;;;;;;3.17;0.95;;;22.10;79.70;;;;;;4985194;28;20030;-70
2022/10/22 15:57:35;;;;;;;7.85;1.73;;;21.70;81.30;;;;;;4983496;28;20202;-70
2022/10/22 16:00:03;;;;;;;2.95;1.00;;;21.30;82.70;;;;;;4985023;28;20022;-70
2022/10/22 16:02:38;;;;;;;3.20;1.35;;;20.90;83.90;;;;;;4965180;28;20065;-70
2022/10/22 16:05:04;;;;;;;3.95;1.10;;;20.60;85.00;;;;;;4972249;28;20031;-70
2022/10/22 16:07:30;;;;;;;5.47;1.50;;;20.30;86.50;;;;;;4984827;28;20035;-69
2022/10/22 16:09:57;;;;;;;5.47;1.70;;;20.10;86.60;;;;;;4984553;28;20137;-69
2022/10/22 16:12:23;;;;;;;10.50;3.47;;;19.90;88.80;;;;;;4984814;28;20085;-72
2022/10/22 16:14:49;;;;;;;6.10;3.33;;;19.70;90.50;;;;;;4982264;28;20043;-70
2022/10/22 16:17:16;;;;;;;6.03;1.90;;;19.60;91.40;;;;;;4966833;28;20085;-70
2022/10/22 16:19:41;;;;;;;5.90;2.80;;;19.50;91.10;;;;;;4983969;28;20133;-70
2022/10/22 16:22:10;;;;;;;6.28;2.25;;;19.40;91.80;;;;;;4984439;28;20090;-69
2022/10/22 16:24:39;;;;;;;;;;;19.30;91.10;;;;;;4984835;28;20035;-71
2022/10/22 16:27:06;;;;;;;23.67;14.35;;;19.30;91.70;;;;;;4984396;28;20189;-72
2022/10/22 16:29:32;;;;;;;22.08;11.15;;;19.20;91.50;;;;;;4984181;28;20097;-70
2022/10/22 16:31:57;;;;;;;5.78;3.22;;;19.00;91.40;;;;;;4983968;28;20209;-70
2022/10/22 16:34:26;;;;;;;5.50;2.72;;;18.80;92.90;;;;;;4984760;28;20098;-72
2022/10/22 16:36:52;;;;;;;8.65;2.42;;;18.80;92.80;;;;;;4983813;28;20042;-70
2022/10/22 16:39:18;;;;;;;10.38;5.10;;;18.70;92.80;;;;;;4984180;28;20038;-71
2022/10/22 16:41:43;;;;;;;4.93;2.33;;;18.60;92.00;;;;;;4983680;28;20053;-72
2022/10/22 16:44:11;;;;;;;7.95;2.00;;;18.50;93.40;;;;;;4984530;28;20232;-72
2022/10/22 16:46:37;;;;;;;4.32;1.80;;;18.50;93.00;;;;;;4983997;28;20042;-73
2022/10/22 16:49:04;;;;;;;6.35;2.10;;;18.40;92.90;;;;;;4984118;28;20042;-71
2022/10/22 16:51:29;;;;;;;5.13;2.00;;;18.30;92.60;;;;;;4984085;28;20038;-73
2022/10/22 16:53:56;;;;;;;6.47;1.63;;;18.20;92.60;;;;;;4983375;28;20316;-71
2022/10/22 16:56:23;;;;;;;6.28;1.70;;;18.10;92.50;;;;;;4984101;28;20065;-74
2022/10/22 16:58:51;;;;;;;4.28;1.40;;;18.00;92.70;;;;;;4983106;28;20050;-70
2022/10/22 17:01:19;;;;;;;3.75;1.30;;;18.00;93.30;;;;;;4983576;28;20046;-71
2022/10/22 17:03:45;;;;;;;6.47;1.90;;;18.00;93.20;;;;;;4944826;29;20103;-70
2022/10/22 17:06:14;;;;;;;6.93;2.38;;;17.90;93.80;;;;;;4945474;29;20265;-71
2022/10/22 17:08:46;;;;;;;22.00;14.18;;;17.90;94.20;;;;;;4943460;29;20027;-71
2022/10/22 17:11:18;;;;;;;14.95;7.55;;;17.80;93.90;;;;;;4945089;29;20039;-72
2022/10/22 17:13:47;;;;;;;7.13;4.18;;;17.70;95.40;;;;;;4944430;29;20036;-73
2022/10/22 17:16:16;;;;;;;7.85;4.15;;;17.70;95.30;;;;;;4943796;29;20102;-71
2022/10/22 17:18:44;;;;;;;11.60;4.43;;;17.50;96.50;;;;;;4940770;29;20020;-71
2022/10/22 17:21:11;;;;;;;6.68;4.25;;;17.50;96.60;;;;;;4929991;29;20043;-72
2022/10/22 17:23:37;;;;;;;5.07;3.15;;;17.40;97.30;;;;;;4943676;29;20198;-71
2022/10/22 17:26:05;;;;;;;7.97;3.60;;;17.30;97.50;;;;;;4944512;29;20141;-71
2022/10/22 17:28:32;;;;;;;5.38;2.42;;;17.20;98.30;;;;;;4945097;29;20027;-72
2022/10/22 17:31:31;;;;;;;10.90;4.88;;;17.20;97.60;;;;;;4944874;29;20110;-72
2022/10/22 17:33:58;;;;;;;6.25;2.80;;;17.00;98.90;;;;;;4912772;29;20035;-72
2022/10/22 17:36:26;;;;;;;5.88;3.03;;;16.80;99.20;;;;;;4944903;29;20083;-71
2022/10/22 17:38:55;;;;;;;8.83;3.90;;;16.80;99.90;;;;;;4944372;29;20246;-71
2022/10/22 17:41:30;;;;;;;8.88;4.38;;;16.70;99.90;;;;;;4944529;29;20052;-71
2022/10/22 17:44:00;;;;;;;6.28;3.10;;;16.60;99.90;;;;;;4944184;29;20199;-71
2022/10/22 17:46:29;;;;;;;8.07;3.80;;;16.60;99.90;;;;;;4944580;29;20059;-71
2022/10/22 17:49:10;;;;;;;8.63;3.88;;;16.50;99.90;;;;;;4944122;29;20037;-71
2022/10/22 17:51:36;;;;;;;8.57;3.65;;;16.40;99.90;;;;;;4944621;29;20039;-71
2022/10/22 17:54:02;;;;;;;13.38;7.03;;;16.40;99.90;;;;;;4944377;29;20015;-70
2022/10/22 17:56:29;;;;;;;11.63;5.60;;;16.20;99.90;;;;;;4943546;29;20253;-71
2022/10/22 17:58:55;;;;;;;8.95;4.30;;;16.20;99.90;;;;;;4944028;29;20087;-72
2022/10/22 18:01:45;;;;;;;8.30;4.53;;;16.10;99.90;;;;;;4944809;28;20042;-71
2022/10/22 18:04:14;;;;;;;8.43;4.20;;;16.00;99.90;;;;;;4971067;28;20053;-70
2022/10/22 18:06:40;;;;;;;11.40;5.05;;;16.00;99.90;;;;;;4982770;28;20034;-71